Greenwood, Texas
Current Conditions -  °F | °C
As of 7:35 PM on Tuesday 27 Jan 2015 (Local Time) from KLUD Reporting Station
Clear Clear  
Wind Chill: 66°   Ceiling: Unl
Heat Index: 66°   Visibility: 10mi
Dew Point: 35°   Wind: 8mph
Humidity: 31%   Direction: 170°S
Pressure: 30.11"   Gusts: NA
Location:  33.38°N, 97.47°W
Report Text: KLUD 280135Z AUTO 17007KT 10SM CLR 19/02 A3011 RMK AO2 T01900016
Loading
Personal Weather Stations






























Interactive Weather Map New forecast layout! Learn more

10-Day Weather Forecast

Advertisements
Track Severe Weather on mobile